Airfield :
LOGIN :

Register | Disclaimer

   EN    FR    IT 

 










Legend :    VFR   Marginal VFR   IFR   Intensive IFR   Very Intensive IFR
Visi :
Ceiling :
>= 8 km
>= 3000ft
5 to 8 km
1000 to 3000 ft
1500m to 5 km
500 to 1000 ft
800 to 1500m
200 to 500 ft
< 800m
< 200 ft
Symbols :   Thunderstorms  Fog  Heavy snow  Heavy precipitations  Wind > 20 kt
SIGMETs :     Misc.  Thunderstorms  Icing  Turbulence  Mountain Waves  Volcanic Ashes







- Airport Elevation : 1017 ft
- Download approach charts


LFSL - Brive Souillac

CURRENT METAR :
  • 192100Z AUTO 16007KT CAVOK 18/03 Q1024

EXPIRED METARs :
  • 192030Z AUTO 14003KT CAVOK 14/05 Q1024 NOSIG
  • 192000Z AUTO 14001KT CAVOK 15/06 Q1024 NOSIG
  • 191930Z AUTO VRB02KT CAVOK 18/06 Q1024 NOSIG
  • 191900Z AUTO 15003KT CAVOK 21/04 Q1023 NOSIG
  • 191830Z AUTO 15005KT CAVOK 23/03 Q1023 NOSIG
  • 191800Z AUTO VRB03KT CAVOK 24/04 Q1023 NOSIG

TAF TAF LFSL
Valid from the 19 at 15:00 until the 20 at 00:00 UTC


191400Z 1915/1924 15010KT CAVOK
BECMG 1918/1920 VRB02KT
No reported NOTAMs for that airfield.



MET'MAP, your aeronautical weather chart ! - Copyright ORBIFLY December 2007 - Disclaimer

ORBIFLY MET'MAP TEAM :

Programming & Development : Alexandra Zaïnal
Concept & Development : Baudouin d'Aumeries
Co-Development & Prog : Marc-Olivier Méhu
Technical & hardware support : Manuel Goepfert

Contact : metmap@orbifly.com




SOURCES & CREDITS :

   NOAA